sensor_id;sensor_type;location;lat;lon;timestamp;temperature;humidity
73112;HTU21D;61301;51.956;5.876;2023-02-24T00:00:11;9.99;62.59
73112;HTU21D;61301;51.956;5.876;2023-02-24T00:02:57;9.95;62.18
73112;HTU21D;61301;51.956;5.876;2023-02-24T00:05:24;9.77;61.02
73112;HTU21D;61301;51.956;5.876;2023-02-24T00:07:50;9.54;60.76
73112;HTU21D;61301;51.956;5.876;2023-02-24T00:10:16;9.44;61.61
73112;HTU21D;61301;51.956;5.876;2023-02-24T00:12:44;9.30;61.54
73112;HTU21D;61301;51.956;5.876;2023-02-24T00:15:14;9.18;61.18
73112;HTU21D;61301;51.956;5.876;2023-02-24T00:17:41;9.07;60.79
73112;HTU21D;61301;51.956;5.876;2023-02-24T00:20:09;8.94;60.91
73112;HTU21D;61301;51.956;5.876;2023-02-24T00:22:39;8.98;61.45
73112;HTU21D;61301;51.956;5.876;2023-02-24T00:25:05;9.11;61.96
73112;HTU21D;61301;51.956;5.876;2023-02-24T00:27:31;9.24;61.91
73112;HTU21D;61301;51.956;5.876;2023-02-24T00:29:57;9.26;61.20
73112;HTU21D;61301;51.956;5.876;2023-02-24T00:32:23;9.11;61.28
73112;HTU21D;61301;51.956;5.876;2023-02-24T00:34:50;9.07;61.38
73112;HTU21D;61301;51.956;5.876;2023-02-24T00:37:15;9.12;61.57
73112;HTU21D;61301;51.956;5.876;2023-02-24T00:39:43;9.10;61.61
73112;HTU21D;61301;51.956;5.876;2023-02-24T00:42:10;9.16;61.56
73112;HTU21D;61301;51.956;5.876;2023-02-24T00:44:39;9.12;61.53
73112;HTU21D;61301;51.956;5.876;2023-02-24T00:47:08;9.15;61.56
73112;HTU21D;61301;51.956;5.876;2023-02-24T00:49:36;9.16;61.64
73112;HTU21D;61301;51.956;5.876;2023-02-24T00:52:11;9.24;62.24
73112;HTU21D;61301;51.956;5.876;2023-02-24T00:54:44;9.35;62.29
73112;HTU21D;61301;51.956;5.876;2023-02-24T00:57:11;9.39;62.05
73112;HTU21D;61301;51.956;5.876;2023-02-24T00:59:37;9.23;60.87
73112;HTU21D;61301;51.956;5.876;2023-02-24T01:02:04;9.19;61.53
73112;HTU21D;61301;51.956;5.876;2023-02-24T01:04:32;9.22;61.62
73112;HTU21D;61301;51.956;5.876;2023-02-24T01:06:58;9.23;61.61
73112;HTU21D;61301;51.956;5.876;2023-02-24T01:09:29;9.12;61.72
73112;HTU21D;61301;51.956;5.876;2023-02-24T01:11:56;9.06;61.68
73112;HTU21D;61301;51.956;5.876;2023-02-24T01:14:43;8.95;61.13
73112;HTU21D;61301;51.956;5.876;2023-02-24T01:17:09;8.65;60.25
73112;HTU21D;61301;51.956;5.876;2023-02-24T01:19:36;8.50;61.12
73112;HTU21D;61301;51.956;5.876;2023-02-24T01:22:07;8.42;60.92
73112;HTU21D;61301;51.956;5.876;2023-02-24T01:24:38;8.33;60.98
73112;HTU21D;61301;51.956;5.876;2023-02-24T01:27:06;8.26;60.97
73112;HTU21D;61301;51.956;5.876;2023-02-24T01:29:34;8.18;61.02
73112;HTU21D;61301;51.956;5.876;2023-02-24T01:32:05;8.14;60.64
73112;HTU21D;61301;51.956;5.876;2023-02-24T01:34:31;7.92;60.53
73112;HTU21D;61301;51.956;5.876;2023-02-24T01:37:00;7.82;61.10
73112;HTU21D;61301;51.956;5.876;2023-02-24T01:39:26;7.93;61.94
73112;HTU21D;61301;51.956;5.876;2023-02-24T01:41:53;7.99;61.67
73112;HTU21D;61301;51.956;5.876;2023-02-24T01:46:51;7.99;61.81
73112;HTU21D;61301;51.956;5.876;2023-02-24T01:49:25;8.09;61.62
73112;HTU21D;61301;51.956;5.876;2023-02-24T01:51:55;8.13;61.73
73112;HTU21D;61301;51.956;5.876;2023-02-24T01:54:36;8.13;61.45
73112;HTU21D;61301;51.956;5.876;2023-02-24T01:57:13;8.06;61.18
73112;HTU21D;61301;51.956;5.876;2023-02-24T01:59:43;8.05;60.88
73112;HTU21D;61301;51.956;5.876;2023-02-24T02:02:10;7.98;60.58
73112;HTU21D;61301;51.956;5.876;2023-02-24T02:04:59;7.77;60.41
73112;HTU21D;61301;51.956;5.876;2023-02-24T02:07:27;7.52;60.51
73112;HTU21D;61301;51.956;5.876;2023-02-24T02:09:58;7.28;60.80
73112;HTU21D;61301;51.956;5.876;2023-02-24T02:12:30;7.14;61.11
73112;HTU21D;61301;51.956;5.876;2023-02-24T02:15:01;7.01;61.34
73112;HTU21D;61301;51.956;5.876;2023-02-24T02:23:33;7.02;62.15
73112;HTU21D;61301;51.956;5.876;2023-02-24T02:26:34;7.20;62.45
73112;HTU21D;61301;51.956;5.876;2023-02-24T02:35:15;7.58;62.60
73112;HTU21D;61301;51.956;5.876;2023-02-24T02:37:51;7.74;62.58
73112;HTU21D;61301;51.956;5.876;2023-02-24T02:40:23;7.93;62.72
73112;HTU21D;61301;51.956;5.876;2023-02-24T02:45:50;8.15;62.57
73112;HTU21D;61301;51.956;5.876;2023-02-24T02:48:39;8.16;62.23
73112;HTU21D;61301;51.956;5.876;2023-02-24T02:51:17;8.11;61.83
73112;HTU21D;61301;51.956;5.876;2023-02-24T02:53:57;8.06;62.44
73112;HTU21D;61301;51.956;5.876;2023-02-24T02:56:29;8.11;62.79
73112;HTU21D;61301;51.956;5.876;2023-02-24T02:58:58;8.23;62.80
73112;HTU21D;61301;51.956;5.876;2023-02-24T03:01:28;8.28;62.39
73112;HTU21D;61301;51.956;5.876;2023-02-24T03:04:01;8.20;62.13
73112;HTU21D;61301;51.956;5.876;2023-02-24T03:06:40;8.17;62.21
73112;HTU21D;61301;51.956;5.876;2023-02-24T03:09:13;8.11;62.11
73112;HTU21D;61301;51.956;5.876;2023-02-24T03:11:50;8.04;61.89
73112;HTU21D;61301;51.956;5.876;2023-02-24T03:14:24;7.99;61.57
73112;HTU21D;61301;51.956;5.876;2023-02-24T03:16:53;7.92;61.21
73112;HTU21D;61301;51.956;5.876;2023-02-24T03:19:25;7.69;60.44
73112;HTU21D;61301;51.956;5.876;2023-02-24T03:22:10;7.65;61.07
73112;HTU21D;61301;51.956;5.876;2023-02-24T03:24:39;7.61;60.89
73112;HTU21D;61301;51.956;5.876;2023-02-24T03:27:12;7.60;61.25
73112;HTU21D;61301;51.956;5.876;2023-02-24T03:30:09;7.67;61.44
73112;HTU21D;61301;51.956;5.876;2023-02-24T03:33:08;7.77;61.53
73112;HTU21D;61301;51.956;5.876;2023-02-24T03:35:39;7.69;62.07
73112;HTU21D;61301;51.956;5.876;2023-02-24T03:38:07;7.74;62.07
73112;HTU21D;61301;51.956;5.876;2023-02-24T03:40:39;7.72;62.07
73112;HTU21D;61301;51.956;5.876;2023-02-24T03:43:15;7.73;61.95
73112;HTU21D;61301;51.956;5.876;2023-02-24T03:45:43;7.62;61.52
73112;HTU21D;61301;51.956;5.876;2023-02-24T03:48:11;7.55;61.56
73112;HTU21D;61301;51.956;5.876;2023-02-24T03:50:41;7.45;61.15
73112;HTU21D;61301;51.956;5.876;2023-02-24T03:53:46;7.48;61.55
73112;HTU21D;61301;51.956;5.876;2023-02-24T04:01:56;7.47;60.74
73112;HTU21D;61301;51.956;5.876;2023-02-24T04:04:58;7.38;60.70
73112;HTU21D;61301;51.956;5.876;2023-02-24T04:15:36;7.22;60.90
73112;HTU21D;61301;51.956;5.876;2023-02-24T04:18:22;7.27;60.86
73112;HTU21D;61301;51.956;5.876;2023-02-24T04:20:50;7.29;60.61
73112;HTU21D;61301;51.956;5.876;2023-02-24T04:23:23;7.24;60.33
73112;HTU21D;61301;51.956;5.876;2023-02-24T04:25:53;7.13;60.20
73112;HTU21D;61301;51.956;5.876;2023-02-24T04:28:24;7.16;60.62
73112;HTU21D;61301;51.956;5.876;2023-02-24T04:30:59;7.29;60.65
73112;HTU21D;61301;51.956;5.876;2023-02-24T04:33:32;7.38;60.60
73112;HTU21D;61301;51.956;5.876;2023-02-24T04:35:59;7.32;59.86
73112;HTU21D;61301;51.956;5.876;2023-02-24T04:38:26;7.22;60.22
73112;HTU21D;61301;51.956;5.876;2023-02-24T04:40:52;7.11;60.26
73112;HTU21D;61301;51.956;5.876;2023-02-24T04:43:19;6.95;60.57
73112;HTU21D;61301;51.956;5.876;2023-02-24T04:45:45;6.81;60.83
73112;HTU21D;61301;51.956;5.876;2023-02-24T04:48:11;6.75;61.09
73112;HTU21D;61301;51.956;5.876;2023-02-24T04:50:40;6.82;61.59
73112;HTU21D;61301;51.956;5.876;2023-02-24T04:53:12;6.69;61.45
73112;HTU21D;61301;51.956;5.876;2023-02-24T04:55:42;6.52;61.72
73112;HTU21D;61301;51.956;5.876;2023-02-24T04:58:12;6.51;61.75
73112;HTU21D;61301;51.956;5.876;2023-02-24T05:00:39;6.52;61.89
73112;HTU21D;61301;51.956;5.876;2023-02-24T05:03:08;6.38;62.18
73112;HTU21D;61301;51.956;5.876;2023-02-24T05:05:36;6.28;62.53
73112;HTU21D;61301;51.956;5.876;2023-02-24T05:08:07;6.21;62.86
73112;HTU21D;61301;51.956;5.876;2023-02-24T05:10:42;6.11;63.24
73112;HTU21D;61301;51.956;5.876;2023-02-24T05:13:13;6.11;63.34
73112;HTU21D;61301;51.956;5.876;2023-02-24T05:15:41;6.10;63.65
73112;HTU21D;61301;51.956;5.876;2023-02-24T05:18:10;6.11;63.45
73112;HTU21D;61301;51.956;5.876;2023-02-24T05:20:44;6.04;63.68
73112;HTU21D;61301;51.956;5.876;2023-02-24T05:23:50;6.12;63.53
73112;HTU21D;61301;51.956;5.876;2023-02-24T05:26:17;6.07;63.64
73112;HTU21D;61301;51.956;5.876;2023-02-24T05:28:48;5.92;64.21
73112;HTU21D;61301;51.956;5.876;2023-02-24T05:31:22;5.80;64.70
73112;HTU21D;61301;51.956;5.876;2023-02-24T05:33:53;5.82;64.69
73112;HTU21D;61301;51.956;5.876;2023-02-24T05:36:20;5.76;64.85
73112;HTU21D;61301;51.956;5.876;2023-02-24T05:38:48;5.69;65.23
73112;HTU21D;61301;51.956;5.876;2023-02-24T05:41:16;5.74;65.05
73112;HTU21D;61301;51.956;5.876;2023-02-24T05:43:44;5.78;64.89
73112;HTU21D;61301;51.956;5.876;2023-02-24T05:46:24;5.86;64.69
73112;HTU21D;61301;51.956;5.876;2023-02-24T05:48:54;5.90;64.51
73112;HTU21D;61301;51.956;5.876;2023-02-24T05:51:29;5.85;64.61
73112;HTU21D;61301;51.956;5.876;2023-02-24T05:54:04;5.89;64.68
73112;HTU21D;61301;51.956;5.876;2023-02-24T05:56:32;6.08;64.48
73112;HTU21D;61301;51.956;5.876;2023-02-24T05:59:00;6.14;64.21
73112;HTU21D;61301;51.956;5.876;2023-02-24T06:01:31;6.22;63.88
73112;HTU21D;61301;51.956;5.876;2023-02-24T06:04:03;6.30;63.84
73112;HTU21D;61301;51.956;5.876;2023-02-24T06:06:37;6.34;63.79
73112;HTU21D;61301;51.956;5.876;2023-02-24T06:09:05;6.34;63.60
73112;HTU21D;61301;51.956;5.876;2023-02-24T06:11:33;6.34;63.69
73112;HTU21D;61301;51.956;5.876;2023-02-24T06:14:00;6.28;63.55
73112;HTU21D;61301;51.956;5.876;2023-02-24T06:16:26;6.16;63.95
73112;HTU21D;61301;51.956;5.876;2023-02-24T06:18:52;6.20;63.78
73112;HTU21D;61301;51.956;5.876;2023-02-24T06:21:21;6.14;63.88
73112;HTU21D;61301;51.956;5.876;2023-02-24T06:23:47;6.21;63.74
73112;HTU21D;61301;51.956;5.876;2023-02-24T06:26:13;6.25;63.61
73112;HTU21D;61301;51.956;5.876;2023-02-24T06:28:44;6.12;63.87
73112;HTU21D;61301;51.956;5.876;2023-02-24T06:31:11;6.16;63.82
73112;HTU21D;61301;51.956;5.876;2023-02-24T06:33:40;6.23;63.67
73112;HTU21D;61301;51.956;5.876;2023-02-24T06:36:07;6.30;63.50
73112;HTU21D;61301;51.956;5.876;2023-02-24T06:38:34;6.33;63.30
73112;HTU21D;61301;51.956;5.876;2023-02-24T06:41:02;6.46;63.44
73112;HTU21D;61301;51.956;5.876;2023-02-24T06:43:30;6.53;63.18
73112;HTU21D;61301;51.956;5.876;2023-02-24T06:45:56;6.57;62.88
73112;HTU21D;61301;51.956;5.876;2023-02-24T06:48:22;6.49;62.84
73112;HTU21D;61301;51.956;5.876;2023-02-24T06:50:48;6.52;63.31
73112;HTU21D;61301;51.956;5.876;2023-02-24T06:53:17;6.60;62.77
73112;HTU21D;61301;51.956;5.876;2023-02-24T06:55:46;6.64;62.46
73112;HTU21D;61301;51.956;5.876;2023-02-24T06:58:16;6.64;61.87
73112;HTU21D;61301;51.956;5.876;2023-02-24T07:00:42;6.71;62.17
73112;HTU21D;61301;51.956;5.876;2023-02-24T07:03:16;6.66;61.89
73112;HTU21D;61301;51.956;5.876;2023-02-24T07:05:51;6.64;62.21
73112;HTU21D;61301;51.956;5.876;2023-02-24T07:08:36;6.56;62.10
73112;HTU21D;61301;51.956;5.876;2023-02-24T07:11:03;6.56;62.41
73112;HTU21D;61301;51.956;5.876;2023-02-24T07:13:31;6.60;62.60
73112;HTU21D;61301;51.956;5.876;2023-02-24T07:16:01;6.61;62.29
73112;HTU21D;61301;51.956;5.876;2023-02-24T07:18:32;6.59;62.52
73112;HTU21D;61301;51.956;5.876;2023-02-24T07:21:01;6.70;62.03
73112;HTU21D;61301;51.956;5.876;2023-02-24T07:23:39;6.71;61.57
73112;HTU21D;61301;51.956;5.876;2023-02-24T07:26:08;6.75;61.91
73112;HTU21D;61301;51.956;5.876;2023-02-24T07:28:35;6.69;62.18
73112;HTU21D;61301;51.956;5.876;2023-02-24T07:31:09;6.74;62.33
73112;HTU21D;61301;51.956;5.876;2023-02-24T07:33:37;6.80;62.11
73112;HTU21D;61301;51.956;5.876;2023-02-24T07:36:07;6.88;61.86
73112;HTU21D;61301;51.956;5.876;2023-02-24T07:38:37;6.94;61.76
73112;HTU21D;61301;51.956;5.876;2023-02-24T07:41:05;6.99;61.94
73112;HTU21D;61301;51.956;5.876;2023-02-24T07:43:35;6.98;61.80
73112;HTU21D;61301;51.956;5.876;2023-02-24T07:46:13;7.03;61.69
73112;HTU21D;61301;51.956;5.876;2023-02-24T07:48:40;7.07;61.45
73112;HTU21D;61301;51.956;5.876;2023-02-24T07:51:07;7.14;61.34
73112;HTU21D;61301;51.956;5.876;2023-02-24T07:53:34;7.23;61.18
73112;HTU21D;61301;51.956;5.876;2023-02-24T07:56:11;7.24;60.78
73112;HTU21D;61301;51.956;5.876;2023-02-24T07:58:43;7.18;61.12
73112;HTU21D;61301;51.956;5.876;2023-02-24T08:01:11;7.25;61.24
73112;HTU21D;61301;51.956;5.876;2023-02-24T08:03:51;7.25;61.26
73112;HTU21D;61301;51.956;5.876;2023-02-24T08:06:22;7.25;61.97
73112;HTU21D;61301;51.956;5.876;2023-02-24T08:08:54;7.28;61.90
73112;HTU21D;61301;51.956;5.876;2023-02-24T08:11:28;7.23;62.66
73112;HTU21D;61301;51.956;5.876;2023-02-24T08:14:01;7.25;62.49
73112;HTU21D;61301;51.956;5.876;2023-02-24T08:16:28;7.23;62.78
73112;HTU21D;61301;51.956;5.876;2023-02-24T08:19:08;7.23;62.58
73112;HTU21D;61301;51.956;5.876;2023-02-24T08:21:39;7.22;63.09
73112;HTU21D;61301;51.956;5.876;2023-02-24T08:24:13;7.20;63.20
73112;HTU21D;61301;51.956;5.876;2023-02-24T08:26:44;7.23;63.15
73112;HTU21D;61301;51.956;5.876;2023-02-24T08:29:11;7.24;63.85
73112;HTU21D;61301;51.956;5.876;2023-02-24T08:31:37;7.26;63.76
73112;HTU21D;61301;51.956;5.876;2023-02-24T08:34:03;7.28;63.70
73112;HTU21D;61301;51.956;5.876;2023-02-24T08:36:29;7.33;64.06
73112;HTU21D;61301;51.956;5.876;2023-02-24T08:38:55;7.43;63.72
73112;HTU21D;61301;51.956;5.876;2023-02-24T08:41:24;7.44;63.46
73112;HTU21D;61301;51.956;5.876;2023-02-24T08:44:11;7.44;63.73
73112;HTU21D;61301;51.956;5.876;2023-02-24T08:46:39;7.52;63.66
73112;HTU21D;61301;51.956;5.876;2023-02-24T08:49:05;7.55;63.31
73112;HTU21D;61301;51.956;5.876;2023-02-24T08:51:37;7.56;63.97
73112;HTU21D;61301;51.956;5.876;2023-02-24T08:54:12;7.69;63.54
73112;HTU21D;61301;51.956;5.876;2023-02-24T08:56:44;7.71;63.28
73112;HTU21D;61301;51.956;5.876;2023-02-24T08:59:16;7.61;63.52
73112;HTU21D;61301;51.956;5.876;2023-02-24T09:01:55;7.64;63.76
73112;HTU21D;61301;51.956;5.876;2023-02-24T09:04:43;7.71;63.82
73112;HTU21D;61301;51.956;5.876;2023-02-24T09:07:21;7.68;64.12
73112;HTU21D;61301;51.956;5.876;2023-02-24T09:09:48;7.71;64.40
73112;HTU21D;61301;51.956;5.876;2023-02-24T09:12:15;7.67;64.20
73112;HTU21D;61301;51.956;5.876;2023-02-24T09:14:51;7.68;64.64
73112;HTU21D;61301;51.956;5.876;2023-02-24T09:17:25;7.62;64.78
73112;HTU21D;61301;51.956;5.876;2023-02-24T09:20:20;7.61;65.15
73112;HTU21D;61301;51.956;5.876;2023-02-24T09:22:54;7.63;65.25
73112;HTU21D;61301;51.956;5.876;2023-02-24T09:25:34;7.69;64.99
73112;HTU21D;61301;51.956;5.876;2023-02-24T09:28:20;7.65;65.20
73112;HTU21D;61301;51.956;5.876;2023-02-24T09:30:51;7.61;65.14
73112;HTU21D;61301;51.956;5.876;2023-02-24T09:33:34;7.68;65.33
73112;HTU21D;61301;51.956;5.876;2023-02-24T09:36:09;7.61;66.11
73112;HTU21D;61301;51.956;5.876;2023-02-24T09:38:40;7.71;65.74
73112;HTU21D;61301;51.956;5.876;2023-02-24T09:44:38;7.65;66.09
73112;HTU21D;61301;51.956;5.876;2023-02-24T09:47:15;7.63;66.28
73112;HTU21D;61301;51.956;5.876;2023-02-24T09:49:58;7.72;66.40
73112;HTU21D;61301;51.956;5.876;2023-02-24T09:52:28;7.78;66.37
73112;HTU21D;61301;51.956;5.876;2023-02-24T10:04:10;8.23;65.53
73112;HTU21D;61301;51.956;5.876;2023-02-24T10:06:52;8.28;64.93
73112;HTU21D;61301;51.956;5.876;2023-02-24T10:09:39;8.28;65.11
73112;HTU21D;61301;51.956;5.876;2023-02-24T10:12:17;8.14;64.95
73112;HTU21D;61301;51.956;5.876;2023-02-24T10:14:51;8.16;64.67
73112;HTU21D;61301;51.956;5.876;2023-02-24T10:17:22;8.28;64.97
73112;HTU21D;61301;51.956;5.876;2023-02-24T10:20:07;8.38;64.63
73112;HTU21D;61301;51.956;5.876;2023-02-24T10:22:58;8.42;64.62
73112;HTU21D;61301;51.956;5.876;2023-02-24T10:31:44;8.35;65.20
73112;HTU21D;61301;51.956;5.876;2023-02-24T10:33:56;8.33;65.78
73112;HTU21D;61301;51.956;5.876;2023-02-24T10:36:24;8.23;66.14
73112;HTU21D;61301;51.956;5.876;2023-02-24T10:39:23;8.32;66.04
73112;HTU21D;61301;51.956;5.876;2023-02-24T10:41:57;8.39;66.05
73112;HTU21D;61301;51.956;5.876;2023-02-24T10:44:26;8.44;65.99
73112;HTU21D;61301;51.956;5.876;2023-02-24T10:47:05;8.57;65.90
73112;HTU21D;61301;51.956;5.876;2023-02-24T10:49:45;8.53;66.14
73112;HTU21D;61301;51.956;5.876;2023-02-24T10:52:31;8.47;66.42
73112;HTU21D;61301;51.956;5.876;2023-02-24T10:55:26;8.57;66.37
73112;HTU21D;61301;51.956;5.876;2023-02-24T10:58:05;8.61;66.91
73112;HTU21D;61301;51.956;5.876;2023-02-24T11:00:39;8.65;67.00
73112;HTU21D;61301;51.956;5.876;2023-02-24T11:03:24;8.55;67.35
73112;HTU21D;61301;51.956;5.876;2023-02-24T11:06:03;8.43;68.04
73112;HTU21D;61301;51.956;5.876;2023-02-24T11:08:31;8.42;67.97
73112;HTU21D;61301;51.956;5.876;2023-02-24T11:11:23;8.45;68.17
73112;HTU21D;61301;51.956;5.876;2023-02-24T11:13:51;8.59;68.20
73112;HTU21D;61301;51.956;5.876;2023-02-24T11:16:46;8.60;68.44
73112;HTU21D;61301;51.956;5.876;2023-02-24T11:19:36;8.53;68.70
73112;HTU21D;61301;51.956;5.876;2023-02-24T11:22:04;8.49;68.80
73112;HTU21D;61301;51.956;5.876;2023-02-24T11:24:35;8.49;68.97
73112;HTU21D;61301;51.956;5.876;2023-02-24T11:27:04;8.51;68.94
73112;HTU21D;61301;51.956;5.876;2023-02-24T11:35:24;8.75;68.61
73112;HTU21D;61301;51.956;5.876;2023-02-24T11:38:24;8.77;68.65
73112;HTU21D;61301;51.956;5.876;2023-02-24T11:43:40;8.74;69.07
73112;HTU21D;61301;51.956;5.876;2023-02-24T11:46:16;8.76;68.90
73112;HTU21D;61301;51.956;5.876;2023-02-24T11:48:53;8.79;68.87
73112;HTU21D;61301;51.956;5.876;2023-02-24T11:51:30;8.87;68.89
73112;HTU21D;61301;51.956;5.876;2023-02-24T11:54:01;8.81;69.39
73112;HTU21D;61301;51.956;5.876;2023-02-24T11:56:41;8.96;68.63
73112;HTU21D;61301;51.956;5.876;2023-02-24T11:59:21;9.02;68.58
73112;HTU21D;61301;51.956;5.876;2023-02-24T12:05:04;9.18;68.47
73112;HTU21D;61301;51.956;5.876;2023-02-24T12:07:38;9.12;69.21
73112;HTU21D;61301;51.956;5.876;2023-02-24T12:13:05;9.25;69.32
73112;HTU21D;61301;51.956;5.876;2023-02-24T12:18:35;9.42;69.26
73112;HTU21D;61301;51.956;5.876;2023-02-24T12:21:09;9.42;69.37
73112;HTU21D;61301;51.956;5.876;2023-02-24T12:23:43;9.44;69.28
73112;HTU21D;61301;51.956;5.876;2023-02-24T12:32:39;9.61;68.94
73112;HTU21D;61301;51.956;5.876;2023-02-24T12:35:48;9.57;69.29
73112;HTU21D;61301;51.956;5.876;2023-02-24T12:38:55;9.57;69.54
73112;HTU21D;61301;51.956;5.876;2023-02-24T12:41:30;9.65;69.47
73112;HTU21D;61301;51.956;5.876;2023-02-24T12:46:36;9.76;69.23
73112;HTU21D;61301;51.956;5.876;2023-02-24T12:57:34;9.74;70.07
73112;HTU21D;61301;51.956;5.876;2023-02-24T13:00:13;10.03;69.53
73112;HTU21D;61301;51.956;5.876;2023-02-24T13:02:55;10.21;69.20
73112;HTU21D;61301;51.956;5.876;2023-02-24T13:05:30;10.36;68.94
73112;HTU21D;61301;51.956;5.876;2023-02-24T13:08:08;10.31;68.93
73112;HTU21D;61301;51.956;5.876;2023-02-24T13:11:06;10.45;68.52
73112;HTU21D;61301;51.956;5.876;2023-02-24T13:16:40;10.57;68.61
73112;HTU21D;61301;51.956;5.876;2023-02-24T13:19:18;10.87;68.47
73112;HTU21D;61301;51.956;5.876;2023-02-24T13:24:29;11.27;67.05
73112;HTU21D;61301;51.956;5.876;2023-02-24T13:29:47;11.58;65.98
73112;HTU21D;61301;51.956;5.876;2023-02-24T13:32:24;11.64;65.81
73112;HTU21D;61301;51.956;5.876;2023-02-24T13:34:53;11.55;65.13
73112;HTU21D;61301;51.956;5.876;2023-02-24T13:37:46;11.70;65.24
73112;HTU21D;61301;51.956;5.876;2023-02-24T13:42:43;11.79;65.21
73112;HTU21D;61301;51.956;5.876;2023-02-24T13:47:51;11.93;64.82
73112;HTU21D;61301;51.956;5.876;2023-02-24T13:53:29;11.93;64.42
73112;HTU21D;61301;51.956;5.876;2023-02-24T13:56:11;11.89;64.36
73112;HTU21D;61301;51.956;5.876;2023-02-24T14:01:31;11.86;64.24
73112;HTU21D;61301;51.956;5.876;2023-02-24T14:04:21;11.83;64.37
73112;HTU21D;61301;51.956;5.876;2023-02-24T14:06:52;11.79;63.32
73112;HTU21D;61301;51.956;5.876;2023-02-24T14:09:32;11.86;63.06
73112;HTU21D;61301;51.956;5.876;2023-02-24T14:12:02;11.75;62.94
73112;HTU21D;61301;51.956;5.876;2023-02-24T14:14:30;11.69;62.84
73112;HTU21D;61301;51.956;5.876;2023-02-24T14:16:56;11.71;62.54
73112;HTU21D;61301;51.956;5.876;2023-02-24T14:19:24;11.85;62.51
73112;HTU21D;61301;51.956;5.876;2023-02-24T14:21:53;11.87;61.96
73112;HTU21D;61301;51.956;5.876;2023-02-24T14:24:20;11.88;61.55
73112;HTU21D;61301;51.956;5.876;2023-02-24T14:26:51;11.86;61.71
73112;HTU21D;61301;51.956;5.876;2023-02-24T14:29:20;11.84;61.76
73112;HTU21D;61301;51.956;5.876;2023-02-24T14:31:52;11.82;61.92
73112;HTU21D;61301;51.956;5.876;2023-02-24T14:34:21;11.84;61.91
73112;HTU21D;61301;51.956;5.876;2023-02-24T14:36:52;11.84;61.36
73112;HTU21D;61301;51.956;5.876;2023-02-24T14:39:21;11.87;60.67
73112;HTU21D;61301;51.956;5.876;2023-02-24T14:41:48;11.86;59.91
73112;HTU21D;61301;51.956;5.876;2023-02-24T14:44:20;11.91;60.57
73112;HTU21D;61301;51.956;5.876;2023-02-24T14:46:49;12.10;60.50
73112;HTU21D;61301;51.956;5.876;2023-02-24T14:49:19;12.32;60.41
73112;HTU21D;61301;51.956;5.876;2023-02-24T14:51:46;12.42;58.87
73112;HTU21D;61301;51.956;5.876;2023-02-24T14:54:22;12.27;59.32
73112;HTU21D;61301;51.956;5.876;2023-02-24T14:56:49;12.27;59.96
73112;HTU21D;61301;51.956;5.876;2023-02-24T14:59:23;12.18;59.31
73112;HTU21D;61301;51.956;5.876;2023-02-24T15:01:55;12.11;59.16
73112;HTU21D;61301;51.956;5.876;2023-02-24T15:04:38;12.13;58.58
73112;HTU21D;61301;51.956;5.876;2023-02-24T15:07:16;12.10;59.18
73112;HTU21D;61301;51.956;5.876;2023-02-24T15:09:47;12.02;59.37
73112;HTU21D;61301;51.956;5.876;2023-02-24T15:14:52;11.88;59.19
73112;HTU21D;61301;51.956;5.876;2023-02-24T15:17:21;11.72;59.62
73112;HTU21D;61301;51.956;5.876;2023-02-24T15:19:48;11.76;59.92
73112;HTU21D;61301;51.956;5.876;2023-02-24T15:22:22;11.67;59.98
73112;HTU21D;61301;51.956;5.876;2023-02-24T15:27:34;11.91;59.78
73112;HTU21D;61301;51.956;5.876;2023-02-24T15:30:07;12.25;58.94
73112;HTU21D;61301;51.956;5.876;2023-02-24T15:35:48;12.52;57.05
73112;HTU21D;61301;51.956;5.876;2023-02-24T15:38:29;12.43;57.48
73112;HTU21D;61301;51.956;5.876;2023-02-24T15:40:59;12.32;57.99
73112;HTU21D;61301;51.956;5.876;2023-02-24T15:43:52;12.21;58.36
73112;HTU21D;61301;51.956;5.876;2023-02-24T15:46:31;12.08;58.43
73112;HTU21D;61301;51.956;5.876;2023-02-24T15:48:58;12.08;57.76
73112;HTU21D;61301;51.956;5.876;2023-02-24T15:51:57;12.02;57.96
73112;HTU21D;61301;51.956;5.876;2023-02-24T15:54:35;11.81;57.06
73112;HTU21D;61301;51.956;5.876;2023-02-24T15:57:03;11.72;57.20
73112;HTU21D;61301;51.956;5.876;2023-02-24T15:59:30;11.71;57.78
73112;HTU21D;61301;51.956;5.876;2023-02-24T16:01:56;11.74;58.25
73112;HTU21D;61301;51.956;5.876;2023-02-24T16:04:23;11.78;58.25
73112;HTU21D;61301;51.956;5.876;2023-02-24T16:06:52;11.77;58.42
73112;HTU21D;61301;51.956;5.876;2023-02-24T16:09:34;12.06;58.14
73112;HTU21D;61301;51.956;5.876;2023-02-24T16:12:04;12.17;57.54
73112;HTU21D;61301;51.956;5.876;2023-02-24T16:14:31;12.07;56.19
73112;HTU21D;61301;51.956;5.876;2023-02-24T16:16:58;12.04;56.93
73112;HTU21D;61301;51.956;5.876;2023-02-24T16:19:25;11.90;57.06
73112;HTU21D;61301;51.956;5.876;2023-02-24T16:21:52;11.93;57.23
73112;HTU21D;61301;51.956;5.876;2023-02-24T16:24:18;11.84;56.42
73112;HTU21D;61301;51.956;5.876;2023-02-24T16:26:44;11.79;56.92
73112;HTU21D;61301;51.956;5.876;2023-02-24T16:29:13;11.67;56.70
73112;HTU21D;61301;51.956;5.876;2023-02-24T16:31:39;11.64;56.87
73112;HTU21D;61301;51.956;5.876;2023-02-24T16:34:06;11.60;57.55
73112;HTU21D;61301;51.956;5.876;2023-02-24T16:36:32;11.59;57.89
73112;HTU21D;61301;51.956;5.876;2023-02-24T16:38:59;11.68;58.17
73112;HTU21D;61301;51.956;5.876;2023-02-24T16:41:26;11.76;58.44
73112;HTU21D;61301;51.956;5.876;2023-02-24T16:43:52;11.81;58.35
73112;HTU21D;61301;51.956;5.876;2023-02-24T16:46:20;11.84;58.45
73112;HTU21D;61301;51.956;5.876;2023-02-24T16:48:49;11.78;58.22
73112;HTU21D;61301;51.956;5.876;2023-02-24T16:51:15;11.81;58.52
73112;HTU21D;61301;51.956;5.876;2023-02-24T16:53:44;11.89;58.64
73112;HTU21D;61301;51.956;5.876;2023-02-24T16:56:10;11.85;58.81
73112;HTU21D;61301;51.956;5.876;2023-02-24T16:58:37;11.77;58.79
73112;HTU21D;61301;51.956;5.876;2023-02-24T17:01:03;11.70;58.27
73112;HTU21D;61301;51.956;5.876;2023-02-24T17:06:01;11.54;58.08
73112;HTU21D;61301;51.956;5.876;2023-02-24T17:08:28;11.64;58.02
73112;HTU21D;61301;51.956;5.876;2023-02-24T17:10:54;11.59;58.35
73112;HTU21D;61301;51.956;5.876;2023-02-24T17:13:20;11.53;58.09
73112;HTU21D;61301;51.956;5.876;2023-02-24T17:15:47;11.55;58.25
73112;HTU21D;61301;51.956;5.876;2023-02-24T17:18:14;11.46;58.09
73112;HTU21D;61301;51.956;5.876;2023-02-24T17:20:43;11.40;57.98
73112;HTU21D;61301;51.956;5.876;2023-02-24T17:23:10;11.49;58.31
73112;HTU21D;61301;51.956;5.876;2023-02-24T17:25:36;11.42;58.36
73112;HTU21D;61301;51.956;5.876;2023-02-24T17:28:02;11.43;58.69
73112;HTU21D;61301;51.956;5.876;2023-02-24T17:30:31;11.46;58.38
73112;HTU21D;61301;51.956;5.876;2023-02-24T17:32:59;11.46;58.16
73112;HTU21D;61301;51.956;5.876;2023-02-24T17:35:25;11.43;58.09
73112;HTU21D;61301;51.956;5.876;2023-02-24T17:37:52;11.37;57.80
73112;HTU21D;61301;51.956;5.876;2023-02-24T17:40:19;11.30;58.19
73112;HTU21D;61301;51.956;5.876;2023-02-24T17:42:45;11.32;58.38
73112;HTU21D;61301;51.956;5.876;2023-02-24T17:45:12;11.41;58.51
73112;HTU21D;61301;51.956;5.876;2023-02-24T17:47:38;11.32;58.61
73112;HTU21D;61301;51.956;5.876;2023-02-24T17:50:05;11.34;58.76
73112;HTU21D;61301;51.956;5.876;2023-02-24T17:52:31;11.31;58.58
73112;HTU21D;61301;51.956;5.876;2023-02-24T17:55:01;11.24;58.69